sensor_id;sensor_type;location;lat;lon;timestamp;P1;durP1;ratioP1;P2;durP2;ratioP2
68993;SDS011;56054;50.968;5.816;2022-08-20T03:18:56;12.57;;;9.32;;
68993;SDS011;56054;50.968;5.816;2022-08-20T03:31:17;16.15;;;10.27;;
68993;SDS011;56054;50.968;5.816;2022-08-20T03:34:41;19.52;;;9.45;;
68993;SDS011;56054;50.968;5.816;2022-08-20T03:38:15;15.05;;;10.05;;
68993;SDS011;56054;50.968;5.816;2022-08-20T03:42:10;16.10;;;10.45;;
68993;SDS011;56054;50.968;5.816;2022-08-20T03:46:15;14.02;;;9.80;;
68993;SDS011;56054;50.968;5.816;2022-08-20T03:58:33;16.23;;;11.10;;
68993;SDS011;56054;50.968;5.816;2022-08-20T06:58:37;27.27;;;11.48;;
68993;SDS011;56054;50.968;5.816;2022-08-20T07:01:56;31.75;;;12.55;;
68993;SDS011;56054;50.968;5.816;2022-08-20T07:05:03;35.28;;;12.68;;
68993;SDS011;56054;50.968;5.816;2022-08-20T07:08:13;40.30;;;13.45;;
68993;SDS011;56054;50.968;5.816;2022-08-20T07:11:21;28.80;;;12.52;;
68993;SDS011;56054;50.968;5.816;2022-08-20T07:14:40;40.13;;;13.45;;
68993;SDS011;56054;50.968;5.816;2022-08-20T07:18:12;41.33;;;14.38;;
68993;SDS011;56054;50.968;5.816;2022-08-20T07:24:50;40.08;;;15.32;;
68993;SDS011;56054;50.968;5.816;2022-08-20T07:28:22;50.15;;;16.45;;
68993;SDS011;56054;50.968;5.816;2022-08-20T07:31:29;47.00;;;15.93;;
68993;SDS011;56054;50.968;5.816;2022-08-20T07:34:42;45.58;;;15.75;;
68993;SDS011;56054;50.968;5.816;2022-08-20T07:38:13;58.30;;;17.42;;
68993;SDS011;56054;50.968;5.816;2022-08-20T07:41:39;51.35;;;16.42;;
68993;SDS011;56054;50.968;5.816;2022-08-20T07:45:10;40.58;;;15.35;;
68993;SDS011;56054;50.968;5.816;2022-08-20T07:48:47;48.35;;;16.88;;
68993;SDS011;56054;50.968;5.816;2022-08-20T07:52:05;50.08;;;16.23;;
68993;SDS011;56054;50.968;5.816;2022-08-20T07:55:20;50.17;;;17.52;;
68993;SDS011;56054;50.968;5.816;2022-08-20T07:58:34;44.90;;;16.25;;
68993;SDS011;56054;50.968;5.816;2022-08-20T08:01:41;41.95;;;15.70;;
68993;SDS011;56054;50.968;5.816;2022-08-20T08:09:58;41.20;;;16.50;;
68993;SDS011;56054;50.968;5.816;2022-08-20T08:13:39;51.10;;;16.38;;
68993;SDS011;56054;50.968;5.816;2022-08-20T08:17:11;51.97;;;16.67;;
68993;SDS011;56054;50.968;5.816;2022-08-20T08:20:20;47.15;;;17.17;;
68993;SDS011;56054;50.968;5.816;2022-08-20T08:23:27;45.47;;;17.02;;
68993;SDS011;56054;50.968;5.816;2022-08-20T08:26:34;41.85;;;14.23;;
68993;SDS011;56054;50.968;5.816;2022-08-20T13:47:39;12.15;;;2.80;;
68993;SDS011;56054;50.968;5.816;2022-08-20T19:24:52;14.52;;;4.32;;
68993;SDS011;56054;50.968;5.816;2022-08-20T19:38:32;3.97;;;2.05;;
68993;SDS011;56054;50.968;5.816;2022-08-20T19:41:49;3.85;;;1.80;;
68993;SDS011;56054;50.968;5.816;2022-08-20T19:45:08;4.35;;;1.60;;
68993;SDS011;56054;50.968;5.816;2022-08-20T19:48:32;8.00;;;2.05;;
68993;SDS011;56054;50.968;5.816;2022-08-20T19:55:36;10.40;;;2.03;;
68993;SDS011;56054;50.968;5.816;2022-08-20T19:59:01;8.77;;;2.17;;
68993;SDS011;56054;50.968;5.816;2022-08-20T20:05:26;6.65;;;2.70;;
68993;SDS011;56054;50.968;5.816;2022-08-20T20:08:41;8.80;;;2.55;;
68993;SDS011;56054;50.968;5.816;2022-08-20T20:11:52;6.38;;;2.67;;
68993;SDS011;56054;50.968;5.816;2022-08-20T20:15:04;5.10;;;2.47;;
68993;SDS011;56054;50.968;5.816;2022-08-20T20:18:13;12.52;;;2.30;;
68993;SDS011;56054;50.968;5.816;2022-08-20T20:21:38;8.07;;;2.28;;
68993;SDS011;56054;50.968;5.816;2022-08-20T20:32:20;8.77;;;2.75;;
68993;SDS011;56054;50.968;5.816;2022-08-20T20:35:31;6.15;;;2.30;;
68993;SDS011;56054;50.968;5.816;2022-08-20T20:38:56;7.63;;;2.63;;
68993;SDS011;56054;50.968;5.816;2022-08-20T20:42:06;7.88;;;2.15;;
68993;SDS011;56054;50.968;5.816;2022-08-20T20:45:34;6.25;;;2.20;;
68993;SDS011;56054;50.968;5.816;2022-08-20T20:48:48;11.65;;;2.53;;
68993;SDS011;56054;50.968;5.816;2022-08-20T20:52:02;7.70;;;2.70;;
68993;SDS011;56054;50.968;5.816;2022-08-20T21:01:59;10.00;;;3.13;;
68993;SDS011;56054;50.968;5.816;2022-08-20T21:08:34;7.25;;;3.53;;
68993;SDS011;56054;50.968;5.816;2022-08-20T21:11:51;7.05;;;3.10;;
68993;SDS011;56054;50.968;5.816;2022-08-20T21:19:05;8.38;;;2.45;;
68993;SDS011;56054;50.968;5.816;2022-08-20T21:22:13;6.38;;;2.38;;
68993;SDS011;56054;50.968;5.816;2022-08-20T21:25:20;6.30;;;2.72;;
68993;SDS011;56054;50.968;5.816;2022-08-20T21:28:29;6.88;;;3.17;;
68993;SDS011;56054;50.968;5.816;2022-08-20T21:31:39;4.25;;;2.72;;
68993;SDS011;56054;50.968;5.816;2022-08-20T21:34:54;6.75;;;3.35;;
68993;SDS011;56054;50.968;5.816;2022-08-20T21:38:01;6.78;;;3.25;;
68993;SDS011;56054;50.968;5.816;2022-08-20T21:41:08;9.63;;;3.85;;
68993;SDS011;56054;50.968;5.816;2022-08-20T21:44:20;8.85;;;4.55;;
68993;SDS011;56054;50.968;5.816;2022-08-20T21:47:35;12.15;;;3.50;;
68993;SDS011;56054;50.968;5.816;2022-08-20T21:50:43;8.68;;;3.47;;
68993;SDS011;56054;50.968;5.816;2022-08-20T21:53:50;8.65;;;3.85;;
68993;SDS011;56054;50.968;5.816;2022-08-20T21:57:01;10.00;;;4.10;;
68993;SDS011;56054;50.968;5.816;2022-08-20T22:00:12;13.05;;;4.50;;
68993;SDS011;56054;50.968;5.816;2022-08-20T22:03:27;9.15;;;4.30;;
68993;SDS011;56054;50.968;5.816;2022-08-20T22:06:36;9.55;;;4.25;;
68993;SDS011;56054;50.968;5.816;2022-08-20T22:09:43;12.25;;;4.30;;
68993;SDS011;56054;50.968;5.816;2022-08-20T22:12:54;11.70;;;4.63;;
68993;SDS011;56054;50.968;5.816;2022-08-20T22:16:07;9.00;;;3.90;;
68993;SDS011;56054;50.968;5.816;2022-08-20T22:19:20;14.75;;;3.35;;
68993;SDS011;56054;50.968;5.816;2022-08-20T22:22:29;11.32;;;4.03;;
68993;SDS011;56054;50.968;5.816;2022-08-20T22:25:37;10.90;;;4.57;;
68993;SDS011;56054;50.968;5.816;2022-08-20T22:28:45;9.95;;;4.10;;
68993;SDS011;56054;50.968;5.816;2022-08-20T22:31:53;14.02;;;3.88;;
68993;SDS011;56054;50.968;5.816;2022-08-20T22:35:03;7.35;;;3.58;;
68993;SDS011;56054;50.968;5.816;2022-08-20T22:38:41;7.20;;;3.05;;
68993;SDS011;56054;50.968;5.816;2022-08-20T22:42:13;9.35;;;3.45;;
68993;SDS011;56054;50.968;5.816;2022-08-20T22:48:45;8.20;;;3.00;;
68993;SDS011;56054;50.968;5.816;2022-08-20T22:51:52;7.40;;;3.33;;
68993;SDS011;56054;50.968;5.816;2022-08-20T22:55:00;6.38;;;3.60;;
68993;SDS011;56054;50.968;5.816;2022-08-20T22:58:10;11.00;;;3.63;;
68993;SDS011;56054;50.968;5.816;2022-08-20T23:01:18;7.53;;;3.80;;
68993;SDS011;56054;50.968;5.816;2022-08-20T23:04:29;8.90;;;3.40;;
68993;SDS011;56054;50.968;5.816;2022-08-20T23:07:38;10.90;;;3.90;;
68993;SDS011;56054;50.968;5.816;2022-08-20T23:10:46;9.55;;;3.80;;
68993;SDS011;56054;50.968;5.816;2022-08-20T23:13:55;14.10;;;3.88;;
68993;SDS011;56054;50.968;5.816;2022-08-20T23:17:44;6.80;;;3.47;;
68993;SDS011;56054;50.968;5.816;2022-08-20T23:28:27;5.80;;;3.50;;
68993;SDS011;56054;50.968;5.816;2022-08-20T23:31:41;6.10;;;3.88;;
68993;SDS011;56054;50.968;5.816;2022-08-20T23:34:55;11.80;;;4.10;;
68993;SDS011;56054;50.968;5.816;2022-08-20T23:38:23;7.68;;;3.35;;
68993;SDS011;56054;50.968;5.816;2022-08-20T23:41:55;9.77;;;4.05;;
68993;SDS011;56054;50.968;5.816;2022-08-20T23:45:30;7.20;;;3.63;;
68993;SDS011;56054;50.968;5.816;2022-08-20T23:48:43;6.18;;;3.20;;
